Time;durP1;ratioP1;P1;durP2;ratioP2;P2;SDS_P1;SDS_P2;PMS_P1;PMS_P2;Temp;Humidity;BMP_temperature;BMP_pressure;BME280_temperature;BME280_humidity;BME280_pressure;Samples;Min_cycle;Max_cycle;Signal;HPM_P1;HPM_P2
2022/03/30 00:03:17;;;;;;;;;;;;;;;4.12;77.71;98326.31;8396918;28;19924;-69
2022/03/30 00:07:17;;;;;;;;;;;;;;;4.09;77.66;98327.66;8394602;28;19973;-70
2022/03/30 00:11:19;;;;;;;;;;;;;;;3.98;77.77;98325.38;8396044;28;19920;-70
2022/03/30 00:15:19;;;;;;;;;;;;;;;3.95;77.98;98325.97;8396273;28;19924;-69
2022/03/30 00:19:20;;;;;;;;;;;;;;;3.94;78.04;98314.47;8396106;28;19924;-69
2022/03/30 00:23:21;;;;;;;;;;;;;;;3.90;77.81;98312.66;8395571;28;19920;-70
2022/03/30 00:27:22;;;;;;;;;;;;;;;3.76;78.02;98313.31;8395003;28;19974;-70
2022/03/30 00:31:22;;;;;;;;;;;;;;;3.64;78.38;98310.25;8393409;28;20038;-70
2022/03/30 00:35:23;;;;;;;;;;;;;;;3.50;78.61;98314.66;8395322;28;19920;-69
2022/03/30 00:39:24;;;;;;;;;;;;;;;3.39;78.66;98307.81;8396358;28;20436;-69
2022/03/30 00:43:25;;;;;;;;;;;;;;;3.22;78.84;98308.25;8395785;28;19935;-69
2022/03/30 00:47:26;;;;;;;;;;;;;;;3.09;79.20;98308.09;8395048;28;19921;-70
2022/03/30 00:51:27;;;;;;;;;;;;;;;2.93;79.38;98308.22;8394610;28;20268;-70
2022/03/30 00:55:28;;;;;;;;;;;;;;;2.90;79.34;98305.31;8395551;28;19959;-70
2022/03/30 00:59:29;;;;;;;;;;;;;;;2.83;78.83;98294.97;8395459;28;20387;-69
2022/03/30 01:03:30;;;;;;;;;;;;;;;2.82;79.28;98295.22;8394774;28;19926;-70
2022/03/30 01:07:31;;;;;;;;;;;;;;;2.82;79.47;98288.03;8395270;28;19927;-69
2022/03/30 01:11:31;;;;;;;;;;;;;;;2.82;79.62;98288.03;8394903;28;20272;-69
2022/03/30 01:15:32;;;;;;;;;;;;;;;2.81;79.66;98286.44;8342712;28;19928;-70
2022/03/30 01:19:34;;;;;;;;;;;;;;;2.64;79.93;98288.69;8392195;28;19920;-69
2022/03/30 01:23:35;;;;;;;;;;;;;;;2.58;80.20;98281.00;8394789;28;20206;-69
2022/03/30 01:27:36;;;;;;;;;;;;;;;2.51;79.68;98275.97;8393679;28;20160;-69
2022/03/30 01:35:56;;;;;;;;;;;;;;;2.24;80.19;98276.41;8392319;28;19927;-69
2022/03/30 01:40:01;;;;;;;;;;;;;;;2.12;80.50;98274.06;8393706;28;19969;-69
2022/03/30 01:44:01;;;;;;;;;;;;;;;2.02;80.03;98268.78;8393742;28;20355;-69
2022/03/30 01:48:02;;;;;;;;;;;;;;;1.87;80.39;98274.16;8393820;28;19921;-69
2022/03/30 01:52:03;;;;;;;;;;;;;;;1.73;80.33;98265.19;8393210;28;19943;-69
2022/03/30 01:56:04;;;;;;;;;;;;;;;1.63;80.23;98259.91;8357911;28;20479;-69
2022/03/30 02:00:05;;;;;;;;;;;;;;;1.53;80.38;98257.25;8393109;28;19920;-69
2022/03/30 02:04:06;;;;;;;;;;;;;;;1.34;81.22;98250.91;8393815;28;19921;-69
2022/03/30 02:08:07;;;;;;;;;;;;;;;1.26;81.27;98255.72;8394053;28;19924;-69
2022/03/30 02:12:08;;;;;;;;;;;;;;;1.21;80.60;98247.75;8393061;28;19921;-70
2022/03/30 02:16:09;;;;;;;;;;;;;;;1.15;80.47;98248.81;8393581;28;20008;-69
2022/03/30 02:20:11;;;;;;;;;;;;;;;1.08;80.05;98245.63;8392667;28;19942;-69
2022/03/30 02:24:13;;;;;;;;;;;;;;;0.95;80.63;98248.84;8374103;28;19927;-69
2022/03/30 02:28:13;;;;;;;;;;;;;;;0.80;80.77;98246.97;8384740;28;20335;-70
2022/03/30 02:32:14;;;;;;;;;;;;;;;0.75;80.97;98243.50;8388302;28;19926;-69
2022/03/30 02:36:15;;;;;;;;;;;;;;;0.67;80.82;98241.41;8413678;28;20315;-69
2022/03/30 02:40:16;;;;;;;;;;;;;;;0.59;80.61;98239.25;8392871;28;19994;-70
2022/03/30 02:44:17;;;;;;;;;;;;;;;0.52;81.14;98238.75;8392627;28;19989;-70
2022/03/30 02:48:22;;;;;;;;;;;;;;;0.49;80.83;98233.94;8398964;28;19998;-70
2022/03/30 02:52:23;;;;;;;;;;;;;;;0.45;80.79;98232.88;8399265;28;20025;-70
2022/03/30 02:56:24;;;;;;;;;;;;;;;0.43;80.29;98233.94;8398830;28;19971;-70
2022/03/30 03:00:25;;;;;;;;;;;;;;;0.42;80.60;98234.22;8399040;28;20037;-70
2022/03/30 03:04:25;;;;;;;;;;;;;;;0.37;80.56;98232.34;8398807;28;20027;-70
2022/03/30 03:08:26;;;;;;;;;;;;;;;0.28;80.80;98239.22;8399202;28;19991;-69
2022/03/30 03:12:27;;;;;;;;;;;;;;;0.21;80.86;98238.69;8398650;28;20438;-70
2022/03/30 03:16:28;;;;;;;;;;;;;;;0.16;80.31;98241.31;8398224;28;20024;-69
2022/03/30 03:20:29;;;;;;;;;;;;;;;0.09;80.81;98230.19;8397483;28;19983;-69
2022/03/30 03:24:30;;;;;;;;;;;;;;;0.07;80.99;98221.66;8398115;28;19975;-70
2022/03/30 03:28:30;;;;;;;;;;;;;;;0.05;81.10;98231.75;8397440;28;20435;-69
2022/03/30 03:32:31;;;;;;;;;;;;;;;0.03;80.43;98225.91;8395950;28;20017;-69
2022/03/30 03:36:32;;;;;;;;;;;;;;;0.00;80.72;98229.09;8397987;28;19978;-69
2022/03/30 03:40:33;;;;;;;;;;;;;;;-0.05;80.84;98231.72;8397898;28;19993;-69
2022/03/30 03:44:34;;;;;;;;;;;;;;;-0.09;81.32;98234.09;8360849;28;20065;-69
2022/03/30 03:48:34;;;;;;;;;;;;;;;-0.10;80.60;98231.69;8397997;28;19967;-70
2022/03/30 03:52:35;;;;;;;;;;;;;;;-0.16;81.13;98230.09;8398644;28;19991;-69
2022/03/30 03:56:36;;;;;;;;;;;;;;;-0.21;81.44;98235.41;8396858;28;19971;-69
2022/03/30 04:00:37;;;;;;;;;;;;;;;-0.24;81.42;98230.59;8397580;28;19987;-69
2022/03/30 04:04:38;;;;;;;;;;;;;;;-0.25;81.06;98234.31;8396000;28;20061;-69
2022/03/30 04:08:39;;;;;;;;;;;;;;;-0.27;80.73;98236.44;8397306;28;20167;-69
2022/03/30 04:12:40;;;;;;;;;;;;;;;-0.29;80.97;98233.22;8397476;28;20018;-69
2022/03/30 04:16:41;;;;;;;;;;;;;;;-0.32;81.25;98223.16;8396450;28;20062;-69
2022/03/30 04:20:43;;;;;;;;;;;;;;;-0.35;81.25;98223.66;8396551;28;20041;-69
2022/03/30 04:24:44;;;;;;;;;;;;;;;-0.35;80.46;98218.34;8394144;28;20013;-70
2022/03/30 04:28:44;;;;;;;;;;;;;;;-0.35;80.42;98223.66;8395788;28;19967;-69
2022/03/30 04:32:45;;;;;;;;;;;;;;;-0.36;80.76;98222.03;8396667;28;20057;-69
2022/03/30 04:36:46;;;;;;;;;;;;;;;-0.38;80.43;98224.97;8395118;28;20132;-69
2022/03/30 04:40:47;;;;;;;;;;;;;;;-0.40;80.15;98223.63;8392321;28;20041;-69
2022/03/30 04:44:47;;;;;;;;;;;;;;;-0.42;80.37;98224.69;8393646;28;19979;-70
2022/03/30 04:48:48;;;;;;;;;;;;;;;-0.40;80.39;98226.28;8394549;28;20081;-69
2022/03/30 04:52:49;;;;;;;;;;;;;;;-0.40;80.50;98227.09;8394902;28;20024;-70
2022/03/30 04:56:51;;;;;;;;;;;;;;;-0.36;80.73;98222.03;8391015;28;20020;-70
2022/03/30 05:00:52;;;;;;;;;;;;;;;-0.30;80.50;98231.63;8393880;28;19988;-70
2022/03/30 05:04:53;;;;;;;;;;;;;;;-0.25;80.15;98229.00;8394431;28;20308;-69
2022/03/30 05:08:54;;;;;;;;;;;;;;;-0.24;80.62;98233.25;8393891;28;20331;-70
2022/03/30 05:12:55;;;;;;;;;;;;;;;-0.17;80.76;98231.16;8408287;28;20070;-70
2022/03/30 05:16:56;;;;;;;;;;;;;;;-0.08;80.54;98229.59;8392538;28;20441;-69
2022/03/30 05:20:57;;;;;;;;;;;;;;;0.03;80.60;98236.53;8394162;28;20002;-70
2022/03/30 05:24:58;;;;;;;;;;;;;;;0.12;79.90;98234.94;8393990;28;19967;-70
2022/03/30 05:28:58;;;;;;;;;;;;;;;0.20;79.87;98241.63;8393452;28;20433;-70
2022/03/30 05:33:01;;;;;;;;;;;;;;;0.28;79.98;98239.22;8392951;28;19967;-70
2022/03/30 05:37:01;;;;;;;;;;;;;;;0.40;79.77;98242.44;8393540;28;20024;-70
2022/03/30 05:41:02;;;;;;;;;;;;;;;0.50;79.68;98246.97;8392502;28;20061;-69
2022/03/30 05:45:04;;;;;;;;;;;;;;;0.65;79.01;98244.31;8393939;28;20025;-69
2022/03/30 05:49:06;;;;;;;;;;;;;;;0.79;79.61;98241.94;8392552;28;19967;-69
2022/03/30 05:53:06;;;;;;;;;;;;;;;0.95;78.94;98232.91;8390869;28;19967;-69
2022/03/30 05:57:07;;;;;;;;;;;;;;;1.14;79.33;98231.28;8407849;28;20077;-69
2022/03/30 06:01:08;;;;;;;;;;;;;;;1.32;79.87;98227.25;8393793;28;19970;-70
2022/03/30 06:05:10;;;;;;;;;;;;;;;1.55;79.42;98231.16;8393130;28;20029;-70
2022/03/30 06:09:10;;;;;;;;;;;;;;;1.80;79.52;98239.03;8393264;28;19971;-70
2022/03/30 06:13:11;;;;;;;;;;;;;;;2.05;79.23;98241.63;8395643;28;19975;-69
2022/03/30 06:17:13;;;;;;;;;;;;;;;2.30;79.35;98226.53;8393273;28;19978;-69
2022/03/30 06:21:14;;;;;;;;;;;;;;;2.57;79.17;98234.91;8397103;28;20537;-69
2022/03/30 06:25:16;;;;;;;;;;;;;;;2.82;79.05;98234.69;8399688;28;20005;-69
2022/03/30 06:29:17;;;;;;;;;;;;;;;3.09;79.90;98225.41;8400135;28;20495;-69
2022/03/30 06:33:17;;;;;;;;;;;;;;;3.34;80.58;98230.47;8400513;28;20025;-70
2022/03/30 06:37:18;;;;;;;;;;;;;;;3.56;81.08;98238.78;8399758;28;19967;-70
2022/03/30 06:41:19;;;;;;;;;;;;;;;3.82;81.38;98237.41;8400003;28;19975;-70
2022/03/30 06:45:20;;;;;;;;;;;;;;;4.03;82.00;98237.16;8400040;28;19981;-70
2022/03/30 06:49:21;;;;;;;;;;;;;;;4.26;81.49;98241.66;8400197;28;19962;-70
2022/03/30 06:53:22;;;;;;;;;;;;;;;4.39;79.73;98240.94;8400025;28;20439;-70
2022/03/30 06:57:23;;;;;;;;;;;;;;;4.60;79.46;98241.44;8363899;28;19977;-69
2022/03/30 07:01:24;;;;;;;;;;;;;;;4.64;78.52;98248.59;8394536;28;20503;-70
2022/03/30 07:05:24;;;;;;;;;;;;;;;4.78;77.95;98237.16;8398680;28;19990;-70
2022/03/30 07:13:44;;;;;;;;;;;;;;;5.03;75.78;98239.41;8399083;28;19997;-69
2022/03/30 07:17:49;;;;;;;;;;;;;;;5.18;75.00;98252.56;8379592;28;20018;-70
2022/03/30 07:21:50;;;;;;;;;;;;;;;5.29;74.27;98247.78;8398540;28;20010;-69
2022/03/30 07:25:51;;;;;;;;;;;;;;;5.44;73.69;98253.69;8398822;28;20465;-69
2022/03/30 07:29:52;;;;;;;;;;;;;;;5.59;72.20;98251.81;8398669;28;19971;-69
2022/03/30 07:33:53;;;;;;;;;;;;;;;5.73;70.39;98252.59;8397800;28;19971;-70
2022/03/30 07:37:54;;;;;;;;;;;;;;;5.95;69.23;98252.75;8397858;28;20050;-69
2022/03/30 07:41:55;;;;;;;;;;;;;;;6.18;67.82;98249.03;8396231;28;19978;-69
2022/03/30 07:45:56;;;;;;;;;;;;;;;6.29;66.48;98253.06;8398190;28;19967;-71
2022/03/30 07:49:58;;;;;;;;;;;;;;;6.48;64.14;98252.16;8396878;28;20415;-69
2022/03/30 07:53:59;;;;;;;;;;;;;;;6.62;62.80;98260.94;8395200;28;19974;-70
2022/03/30 07:58:00;;;;;;;;;;;;;;;6.63;61.48;98259.84;8397555;28;19987;-70
2022/03/30 08:02:00;;;;;;;;;;;;;;;6.76;60.09;98259.03;8397628;28;20511;-70
2022/03/30 08:06:02;;;;;;;;;;;;;;;6.79;59.72;98259.19;8397138;28;20078;-70
2022/03/30 08:10:03;;;;;;;;;;;;;;;6.78;59.47;98249.56;8395826;28;19968;-70
2022/03/30 08:14:04;;;;;;;;;;;;;;;6.75;58.98;98252.06;8397158;28;19971;-70
2022/03/30 08:18:06;;;;;;;;;;;;;;;6.83;58.31;98243.28;8397149;28;21152;-70
2022/03/30 08:22:25;;;;;;;;;;;;;;;6.95;58.33;98240.84;8394853;28;19975;-70
2022/03/30 08:26:26;;;;;;;;;;;;;;;7.13;57.59;98242.53;8393753;28;20022;-70
2022/03/30 08:30:27;;;;;;;;;;;;;;;7.28;56.76;98240.56;8393944;28;19978;-71
2022/03/30 08:34:28;;;;;;;;;;;;;;;7.48;55.70;98237.34;8395449;28;19970;-69
2022/03/30 08:38:29;;;;;;;;;;;;;;;7.70;56.05;98229.22;8396728;28;20457;-69
2022/03/30 08:42:29;;;;;;;;;;;;;;;7.83;54.66;98233.69;8396233;28;20395;-70
2022/03/30 08:46:30;;;;;;;;;;;;;;;7.98;53.99;98225.19;8396072;28;19971;-70
2022/03/30 08:50:31;;;;;;;;;;;;;;;7.95;53.44;98236.56;8396075;28;19976;-69
2022/03/30 08:54:32;;;;;;;;;;;;;;;8.07;53.38;98228.69;8394939;28;19975;-70
2022/03/30 08:58:33;;;;;;;;;;;;;;;8.18;51.67;98228.41;8395905;28;19987;-70
2022/03/30 09:02:38;;;;;;;;;;;;;;;8.22;50.38;98221.28;8396641;28;20442;-70
2022/03/30 09:06:39;;;;;;;;;;;;;;;8.33;50.19;98222.59;8396052;28;19995;-70
2022/03/30 09:10:42;;;;;;;;;;;;;;;8.38;50.67;98222.44;8396007;28;19985;-70
2022/03/30 09:14:43;;;;;;;;;;;;;;;8.41;50.88;98221.81;8396021;28;20675;-70
2022/03/30 09:19:02;;;;;;;;;;;;;;;8.50;51.37;98225.31;8393497;28;19995;-70
2022/03/30 09:23:03;;;;;;;;;;;;;;;8.79;48.52;98205.81;8395629;28;20048;-70
2022/03/30 09:27:05;;;;;;;;;;;;;;;8.70;48.84;98203.13;8395882;28;19983;-69
2022/03/30 09:31:05;;;;;;;;;;;;;;;8.92;47.27;98201.38;8395359;28;20412;-70
2022/03/30 09:35:17;;;;;;;;;;;;;;;8.96;47.37;98205.00;8395691;28;19978;-70
2022/03/30 09:39:30;;;;;;;;;;;;;;;9.10;48.03;98200.22;8395229;28;20519;-69
2022/03/30 09:43:34;;;;;;;;;;;;;;;9.11;47.81;98191.03;8395005;28;19975;-70
2022/03/30 09:47:38;;;;;;;;;;;;;;;9.51;47.14;98186.94;8391756;28;20627;-70
2022/03/30 09:51:39;;;;;;;;;;;;;;;9.70;46.52;98181.94;8369057;28;19959;-70
2022/03/30 09:55:57;;;;;;;;;;;;;;;9.95;46.75;98179.41;8393724;28;20000;-70
2022/03/30 10:00:09;;;;;;;;;;;;;;;10.24;45.97;98179.41;8394168;28;19961;-70
2022/03/30 10:04:10;;;;;;;;;;;;;;;10.48;46.60;98171.44;8394637;28;19960;-70
2022/03/30 10:08:11;;;;;;;;;;;;;;;10.88;46.63;98165.53;8387289;28;19991;-71
2022/03/30 10:12:12;;;;;;;;;;;;;;;10.96;45.14;98172.75;8390814;28;20395;-70
2022/03/30 10:16:13;;;;;;;;;;;;;;;10.82;43.20;98162.25;8390265;28;19971;-69
2022/03/30 10:20:14;;;;;;;;;;;;;;;10.75;43.42;98161.19;8373225;28;20082;-70
2022/03/30 10:24:15;;;;;;;;;;;;;;;10.93;43.90;98151.81;8390614;28;20024;-70
2022/03/30 10:28:15;;;;;;;;;;;;;;;11.10;44.13;98157.03;8390738;28;20097;-71
2022/03/30 10:32:17;;;;;;;;;;;;;;;11.29;43.73;98143.78;8389625;28;20032;-70
2022/03/30 10:36:28;;;;;;;;;;;;;;;11.65;42.66;98144.91;8390440;28;19962;-70
2022/03/30 10:40:29;;;;;;;;;;;;;;;11.87;42.11;98141.78;8393224;28;19955;-70
2022/03/30 10:44:44;;;;;;;;;;;;;;;12.23;42.34;98144.41;8395405;28;20447;-70
2022/03/30 10:48:45;;;;;;;;;;;;;;;12.08;41.15;98131.59;8393948;28;19961;-71
2022/03/30 10:52:48;;;;;;;;;;;;;;;12.09;41.50;98133.19;8408541;28;20063;-69
2022/03/30 10:56:49;;;;;;;;;;;;;;;12.25;41.70;98136.75;8395022;28;20535;-70
2022/03/30 11:00:50;;;;;;;;;;;;;;;12.43;41.50;98136.44;8394070;28;20008;-71
2022/03/30 11:04:51;;;;;;;;;;;;;;;12.52;40.06;98134.41;8388600;28;19942;-70
2022/03/30 11:08:51;;;;;;;;;;;;;;;12.41;39.97;98133.31;8392557;28;20396;-71
2022/03/30 11:13:12;;;;;;;;;;;;;;;12.49;40.95;98124.25;8396612;28;19953;-70
2022/03/30 11:17:14;;;;;;;;;;;;;;;12.32;41.26;98119.13;8399557;28;19967;-70
2022/03/30 11:21:15;;;;;;;;;;;;;;;12.24;41.46;98118.91;8396144;28;20022;-69
2022/03/30 11:25:20;;;;;;;;;;;;;;;12.22;40.38;98118.47;8399309;28;19996;-70
2022/03/30 11:29:40;;;;;;;;;;;;;;;12.14;41.32;98103.16;8399495;28;19970;-70
2022/03/30 11:33:42;;;;;;;;;;;;;;;12.11;40.42;98103.84;8399064;28;19959;-70
2022/03/30 11:37:44;;;;;;;;;;;;;;;12.21;40.58;98091.75;8397394;28;19963;-70
2022/03/30 11:41:53;;;;;;;;;;;;;;;12.44;40.62;98094.69;8396526;28;20373;-70
2022/03/30 11:45:54;;;;;;;;;;;;;;;12.55;39.79;98101.19;8399006;28;20372;-70
2022/03/30 11:49:55;;;;;;;;;;;;;;;12.71;39.52;98088.47;8395608;28;19920;-70
2022/03/30 11:54:29;;;;;;;;;;;;;;;12.84;39.73;98081.88;8397634;28;19920;-70
2022/03/30 11:58:34;;;;;;;;;;;;;;;12.98;39.87;98071.38;8329414;28;20414;-70
2022/03/30 12:02:36;;;;;;;;;;;;;;;12.87;39.33;98086.59;8299611;28;19928;-70
2022/03/30 12:06:44;;;;;;;;;;;;;;;12.98;39.26;98071.38;8328971;28;19956;-70
2022/03/30 12:10:48;;;;;;;;;;;;;;;12.96;38.20;98062.81;8328815;28;19921;-70
2022/03/30 12:14:58;;;;;;;;;;;;;;;12.58;38.81;98074.19;8328764;28;20380;-70
2022/03/30 12:18:59;;;;;;;;;;;;;;;12.61;39.38;98072.75;8328340;28;19921;-70
2022/03/30 12:23:01;;;;;;;;;;;;;;;12.63;39.40;98075.91;8294741;28;19921;-69
2022/03/30 12:27:02;;;;;;;;;;;;;;;12.69;37.76;98055.53;8344983;28;19956;-70
2022/03/30 12:31:03;;;;;;;;;;;;;;;12.67;38.17;98060.53;8328797;28;19920;-70
2022/03/30 12:35:11;;;;;;;;;;;;;;;12.79;38.28;98041.50;8393229;28;19944;-69
2022/03/30 12:39:19;;;;;;;;;;;;;;;13.29;37.77;98042.72;8396964;28;20383;-71
2022/03/30 12:43:27;;;;;;;;;;;;;;;13.52;38.12;98024.66;8397722;28;19928;-70
2022/03/30 12:47:31;;;;;;;;;;;;;;;13.75;35.95;98022.03;8396893;28;19952;-70
2022/03/30 12:51:33;;;;;;;;;;;;;;;13.67;36.65;98015.69;8394322;28;19921;-71
2022/03/30 12:55:37;;;;;;;;;;;;;;;13.84;36.16;98030.78;8361647;28;19950;-70
2022/03/30 12:59:41;;;;;;;;;;;;;;;14.06;36.96;98010.31;8394701;28;20407;-70
2022/03/30 13:03:43;;;;;;;;;;;;;;;14.15;37.28;98008.16;8394531;28;19920;-69
2022/03/30 13:07:51;;;;;;;;;;;;;;;13.99;37.79;98004.72;8395690;28;20022;-70
2022/03/30 13:11:52;;;;;;;;;;;;;;;13.39;37.21;98004.22;8395591;28;19928;-69
2022/03/30 13:16:05;;;;;;;;;;;;;;;13.19;37.16;97994.47;8394007;28;20030;-69
2022/03/30 13:20:06;;;;;;;;;;;;;;;13.03;37.67;97992.53;8395749;28;19978;-69
2022/03/30 13:24:13;;;;;;;;;;;;;;;12.89;38.26;97986.78;8394999;28;19931;-70
2022/03/30 13:28:24;;;;;;;;;;;;;;;12.99;37.66;97985.47;8394764;28;19927;-70
2022/03/30 13:32:25;;;;;;;;;;;;;;;12.99;36.69;97985.47;8389221;28;19927;-70
2022/03/30 13:36:26;;;;;;;;;;;;;;;12.56;37.71;97983.63;8393485;28;20315;-70
2022/03/30 13:40:27;;;;;;;;;;;;;;;12.61;37.74;97978.72;8395078;28;19920;-71
2022/03/30 13:44:28;;;;;;;;;;;;;;;12.53;38.41;97973.50;8407540;28;19997;-70
2022/03/30 13:48:29;;;;;;;;;;;;;;;12.34;38.82;97976.06;8394915;28;19920;-69
2022/03/30 13:52:30;;;;;;;;;;;;;;;12.43;38.88;97973.97;8394522;28;19927;-71
2022/03/30 13:56:31;;;;;;;;;;;;;;;12.22;38.76;97975.00;8394631;28;19920;-70
2022/03/30 14:00:32;;;;;;;;;;;;;;;12.05;38.82;97964.50;8394665;28;19928;-70
2022/03/30 14:04:33;;;;;;;;;;;;;;;11.77;39.11;97974.53;8394721;28;19920;-71
2022/03/30 14:08:33;;;;;;;;;;;;;;;11.77;38.87;97958.31;8394781;28;19920;-70
2022/03/30 14:12:34;;;;;;;;;;;;;;;11.71;39.29;97965.06;8394517;28;20014;-70
2022/03/30 14:16:35;;;;;;;;;;;;;;;11.68;39.18;97949.53;8394823;28;20303;-70
2022/03/30 14:20:36;;;;;;;;;;;;;;;11.74;39.78;97953.56;8393610;28;20677;-71
2022/03/30 14:24:38;;;;;;;;;;;;;;;11.59;39.83;97940.75;8394220;28;19921;-69
2022/03/30 14:28:40;;;;;;;;;;;;;;;11.33;39.93;97950.06;8392062;28;19920;-70
2022/03/30 14:32:41;;;;;;;;;;;;;;;11.24;40.27;97935.91;8408947;28;19924;-70
2022/03/30 14:36:42;;;;;;;;;;;;;;;11.13;40.85;97940.19;8394344;28;19950;-70
2022/03/30 14:40:44;;;;;;;;;;;;;;;11.05;41.39;97938.38;8393904;28;19921;-70
2022/03/30 14:44:45;;;;;;;;;;;;;;;11.00;41.82;97941.31;8400577;28;19928;-70
2022/03/30 14:48:46;;;;;;;;;;;;;;;10.85;42.19;97936.59;8414466;28;19920;-70
2022/03/30 14:52:46;;;;;;;;;;;;;;;10.58;43.26;97930.75;8392497;28;19963;-71
2022/03/30 14:56:47;;;;;;;;;;;;;;;10.69;43.30;97935.72;8371231;28;19920;-70
2022/03/30 15:00:49;;;;;;;;;;;;;;;10.51;44.07;97935.94;8366841;28;19935;-70
2022/03/30 15:04:51;;;;;;;;;;;;;;;10.40;44.63;97934.81;8397803;28;20387;-70
2022/03/30 15:08:52;;;;;;;;;;;;;;;10.07;45.05;97926.72;8399700;28;20295;-71
2022/03/30 15:12:53;;;;;;;;;;;;;;;9.97;45.46;97923.66;8396467;28;19920;-70
2022/03/30 15:16:54;;;;;;;;;;;;;;;9.84;46.37;97922.03;8390231;28;20330;-70
2022/03/30 15:20:55;;;;;;;;;;;;;;;9.80;48.36;97931.91;8396824;28;20012;-71
2022/03/30 15:24:57;;;;;;;;;;;;;;;9.67;48.42;97939.97;8398011;28;20379;-71
2022/03/30 15:29:01;;;;;;;;;;;;;;;9.50;49.02;97933.94;8374477;28;20012;-71
2022/03/30 15:33:04;;;;;;;;;;;;;;;9.44;49.25;97936.03;8397462;28;19920;-70
2022/03/30 15:37:05;;;;;;;;;;;;;;;9.50;50.94;97934.72;8398498;28;19927;-70
2022/03/30 15:41:06;;;;;;;;;;;;;;;9.37;51.10;97930.38;8396877;28;19920;-69
2022/03/30 15:45:07;;;;;;;;;;;;;;;9.20;51.07;97922.44;8398288;28;19962;-70
2022/03/30 15:49:08;;;;;;;;;;;;;;;8.95;53.44;97928.75;8398630;28;19927;-70
2022/03/30 15:53:09;;;;;;;;;;;;;;;8.97;54.35;97926.53;8385845;28;20254;-70
2022/03/30 15:57:10;;;;;;;;;;;;;;;8.96;54.00;97930.34;8395442;28;20387;-70
2022/03/30 16:01:11;;;;;;;;;;;;;;;9.05;55.83;97931.06;8397628;28;20007;-70
2022/03/30 16:05:12;;;;;;;;;;;;;;;8.90;55.21;97933.22;8396319;28;19981;-70
2022/03/30 16:09:13;;;;;;;;;;;;;;;8.80;56.19;97933.59;8395932;28;19921;-71
2022/03/30 16:13:15;;;;;;;;;;;;;;;8.72;56.61;97931.75;8397717;28;19920;-70
2022/03/30 16:17:16;;;;;;;;;;;;;;;8.68;57.35;97941.56;8361922;28;20451;-70
2022/03/30 16:21:18;;;;;;;;;;;;;;;8.56;57.92;97938.81;8397151;28;19924;-70
2022/03/30 16:25:20;;;;;;;;;;;;;;;8.49;59.17;97949.25;8396292;28;19921;-69
2022/03/30 16:29:24;;;;;;;;;;;;;;;8.47;60.85;97951.47;8397064;28;19966;-69
2022/03/30 16:33:25;;;;;;;;;;;;;;;8.28;59.96;97948.38;8396709;28;19924;-70
2022/03/30 16:37:31;;;;;;;;;;;;;;;8.19;59.80;97944.91;8397064;28;20019;-71
2022/03/30 16:41:34;;;;;;;;;;;;;;;8.16;60.35;97945.53;8396529;28;19920;-69
2022/03/30 16:45:38;;;;;;;;;;;;;;;8.05;60.81;97945.88;8395847;28;19926;-70
2022/03/30 16:49:39;;;;;;;;;;;;;;;8.05;62.63;97945.88;8396446;28;19927;-70
2022/03/30 16:53:41;;;;;;;;;;;;;;;7.86;62.81;97942.78;8396772;28;19924;-70
2022/03/30 16:57:42;;;;;;;;;;;;;;;7.75;63.88;97952.28;8394872;28;19959;-69
2022/03/30 17:01:43;;;;;;;;;;;;;;;7.65;65.11;97952.59;8396482;28;19920;-69
2022/03/30 17:05:44;;;;;;;;;;;;;;;7.63;66.59;97954.78;8395432;28;20001;-69
2022/03/30 17:09:57;;;;;;;;;;;;;;;7.54;67.70;97956.69;8393633;28;20449;-69
2022/03/30 17:13:58;;;;;;;;;;;;;;;7.38;68.91;97969.03;8391285;28;19920;-69
2022/03/30 17:18:00;;;;;;;;;;;;;;;7.19;70.03;97962.03;8395774;28;20449;-69
2022/03/30 17:22:01;;;;;;;;;;;;;;;7.04;70.53;97959.81;8395758;28;20035;-69
2022/03/30 17:26:03;;;;;;;;;;;;;;;6.82;70.98;97959.91;8390294;28;19934;-70
2022/03/30 17:30:04;;;;;;;;;;;;;;;6.54;72.27;97961.25;8395052;28;19921;-69
2022/03/30 17:34:08;;;;;;;;;;;;;;;6.54;72.10;97955.88;8392203;28;19927;-69
2022/03/30 17:38:08;;;;;;;;;;;;;;;6.46;72.47;97959.31;8392275;28;19921;-69
2022/03/30 17:42:09;;;;;;;;;;;;;;;6.50;71.95;97954.94;8395240;28;19927;-70
2022/03/30 17:46:10;;;;;;;;;;;;;;;6.51;73.88;97956.47;8395575;28;19924;-69
2022/03/30 17:54:32;;;;;;;;;;;;;;;6.35;74.94;97959.59;8395272;28;19920;-70
2022/03/30 17:58:33;;;;;;;;;;;;;;;6.17;75.60;97957.94;8393710;28;19921;-69
2022/03/30 18:02:34;;;;;;;;;;;;;;;6.21;76.58;97958.88;8371056;28;19928;-69
2022/03/30 18:06:36;;;;;;;;;;;;;;;6.16;76.66;97967.06;8392538;28;19920;-70
2022/03/30 18:10:40;;;;;;;;;;;;;;;6.06;77.21;97959.28;8392962;28;20011;-69
2022/03/30 18:14:46;;;;;;;;;;;;;;;6.03;77.42;97962.56;8357693;28;19966;-69
2022/03/30 18:18:47;;;;;;;;;;;;;;;5.92;78.06;97961.25;8396856;28;19931;-69
2022/03/30 18:22:51;;;;;;;;;;;;;;;5.85;78.49;97968.91;8362840;28;20023;-69
2022/03/30 18:26:52;;;;;;;;;;;;;;;5.74;79.00;97964.88;8362671;28;20403;-69
2022/03/30 18:30:53;;;;;;;;;;;;;;;5.77;79.76;97969.59;8359492;28;19962;-70
2022/03/30 18:34:54;;;;;;;;;;;;;;;5.71;79.78;97968.94;8362805;28;19998;-69
2022/03/30 18:38:56;;;;;;;;;;;;;;;5.62;79.83;97983.38;8362250;28;20320;-69
2022/03/30 18:42:57;;;;;;;;;;;;;;;5.64;80.46;97983.88;8345631;28;19928;-70
2022/03/30 18:46:58;;;;;;;;;;;;;;;5.58;80.64;97977.03;8361112;28;19963;-69
2022/03/30 18:50:59;;;;;;;;;;;;;;;5.55;80.77;97977.66;8363341;28;20395;-69
2022/03/30 18:55:02;;;;;;;;;;;;;;;5.46;80.74;97991.75;8346104;28;19982;-69
2022/03/30 18:59:03;;;;;;;;;;;;;;;5.42;80.65;97985.44;8375483;28;19984;-70
2022/03/30 19:03:19;;;;;;;;;;;;;;;5.43;81.04;97988.91;8399100;28;19967;-70
2022/03/30 19:07:21;;;;;;;;;;;;;;;5.34;81.54;97988.81;8397419;28;20093;-68
2022/03/30 19:11:22;;;;;;;;;;;;;;;5.30;82.10;97987.03;8397480;28;19967;-69
2022/03/30 19:15:26;;;;;;;;;;;;;;;5.26;82.62;97989.53;8398920;28;20414;-69
2022/03/30 19:19:28;;;;;;;;;;;;;;;5.22;82.60;97991.22;8312705;28;19984;-69
2022/03/30 19:23:30;;;;;;;;;;;;;;;5.20;82.67;97998.75;8327847;28;19975;-70
2022/03/30 19:27:31;;;;;;;;;;;;;;;5.19;83.10;98002.53;8310261;28;20058;-70
2022/03/30 19:31:32;;;;;;;;;;;;;;;5.14;83.33;97994.59;8327535;28;19978;-71
2022/03/30 19:35:33;;;;;;;;;;;;;;;5.13;83.74;97993.00;8339374;28;20342;-70
2022/03/30 19:39:35;;;;;;;;;;;;;;;5.05;83.89;97996.41;8395159;28;19983;-70
2022/03/30 19:43:38;;;;;;;;;;;;;;;5.13;84.24;97993.00;8397107;28;19967;-71
2022/03/30 19:47:44;;;;;;;;;;;;;;;4.95;84.27;97996.63;8392312;28;19975;-69
2022/03/30 19:51:47;;;;;;;;;;;;;;;4.94;84.48;98000.38;8397434;28;19971;-69
2022/03/30 19:55:48;;;;;;;;;;;;;;;4.86;84.58;97988.50;8396273;28;19968;-69
2022/03/30 19:59:49;;;;;;;;;;;;;;;4.89;84.71;97997.81;8396541;28;20081;-69
2022/03/30 20:03:50;;;;;;;;;;;;;;;4.86;84.79;97987.72;8396286;28;19974;-69
2022/03/30 20:07:56;;;;;;;;;;;;;;;4.86;84.98;97998.41;8396178;28;20354;-69
2022/03/30 20:12:00;;;;;;;;;;;;;;;4.82;84.86;97997.41;8397492;28;19968;-71
2022/03/30 20:16:04;;;;;;;;;;;;;;;4.73;85.27;97993.84;8392716;28;19968;-70
2022/03/30 20:20:09;;;;;;;;;;;;;;;4.59;85.38;98000.00;8395613;28;19983;-69
2022/03/30 20:24:10;;;;;;;;;;;;;;;4.61;85.41;98008.50;8390495;28;20331;-70
2022/03/30 20:28:13;;;;;;;;;;;;;;;4.50;84.88;98006.31;8395522;28;20008;-70
2022/03/30 20:32:14;;;;;;;;;;;;;;;4.28;85.05;98004.31;8406168;28;19967;-70
2022/03/30 20:36:15;;;;;;;;;;;;;;;4.26;84.82;98011.81;8409438;28;19974;-70
2022/03/30 20:40:16;;;;;;;;;;;;;;;4.13;84.56;98001.88;8393843;28;20370;-70
2022/03/30 20:44:19;;;;;;;;;;;;;;;4.14;84.84;98004.28;8394763;28;19974;-69
2022/03/30 20:48:20;;;;;;;;;;;;;;;4.07;85.16;97995.06;8394980;28;19967;-71
2022/03/30 20:52:25;;;;;;;;;;;;;;;3.93;85.45;97996.88;8395033;28;20415;-70
2022/03/30 20:56:29;;;;;;;;;;;;;;;3.92;85.62;98000.63;8394254;28;19967;-70
2022/03/30 21:00:30;;;;;;;;;;;;;;;3.91;85.22;97999.06;8393172;28;19983;-70
2022/03/30 21:04:31;;;;;;;;;;;;;;;3.91;85.39;97999.06;8394693;28;19967;-70
2022/03/30 21:08:32;;;;;;;;;;;;;;;3.64;85.90;98010.44;8394510;28;20519;-70
2022/03/30 21:12:33;;;;;;;;;;;;;;;3.53;85.67;98009.78;8393022;28;19967;-71
2022/03/30 21:16:35;;;;;;;;;;;;;;;3.46;86.22;97998.66;8393821;28;19974;-70
2022/03/30 21:20:40;;;;;;;;;;;;;;;3.43;85.77;98004.59;8390254;28;19986;-70
2022/03/30 21:24:41;;;;;;;;;;;;;;;3.19;86.69;98003.84;8393492;28;19967;-70